createdAt,value
2023-03-29T00:00:35.917Z,3.92
2023-03-29T00:03:04.883Z,4.25
2023-03-29T00:05:36.113Z,4.10
2023-03-29T00:08:05.742Z,3.72
2023-03-29T00:10:34.344Z,4.00
2023-03-29T00:13:03.124Z,4.00
2023-03-29T00:15:31.456Z,3.10
2023-03-29T00:17:59.708Z,3.42
2023-03-29T00:20:28.870Z,3.42
2023-03-29T00:22:57.286Z,3.67
2023-03-29T00:25:26.792Z,4.10
2023-03-29T00:27:54.993Z,3.40
2023-03-29T00:30:22.988Z,4.20
2023-03-29T00:32:51.414Z,3.67
2023-03-29T00:35:19.727Z,4.05
2023-03-29T00:37:51.105Z,3.58
2023-03-29T00:40:19.770Z,4.07
2023-03-29T00:42:49.217Z,3.95
2023-03-29T00:45:22.910Z,3.88
2023-03-29T00:47:55.606Z,4.05
2023-03-29T00:50:29.566Z,4.00
2023-03-29T00:53:03.643Z,4.13
2023-03-29T00:55:35.663Z,4.20
2023-03-29T00:58:10.031Z,4.30
2023-03-29T01:00:43.921Z,4.15
2023-03-29T01:03:15.431Z,3.92
2023-03-29T01:05:47.708Z,4.20
2023-03-29T01:08:20.690Z,4.20
2023-03-29T01:10:54.823Z,4.40
2023-03-29T01:13:30.072Z,4.25
2023-03-29T01:15:59.504Z,4.10
2023-03-29T01:18:27.606Z,4.28
2023-03-29T01:21:12.491Z,4.47
2023-03-29T01:24:06.804Z,4.13
2023-03-29T01:26:46.848Z,4.85
2023-03-29T01:29:22.313Z,5.13
2023-03-29T01:31:54.740Z,5.07
2023-03-29T01:37:00.393Z,4.82
2023-03-29T01:39:28.680Z,5.15
2023-03-29T01:42:10.485Z,5.43
2023-03-29T01:44:48.633Z,5.88
2023-03-29T01:47:24.768Z,5.68
2023-03-29T01:49:59.777Z,5.30
2023-03-29T01:52:34.510Z,5.78
2023-03-29T01:55:06.751Z,5.75
2023-03-29T01:57:38.552Z,5.85
2023-03-29T02:00:12.408Z,6.32
2023-03-29T02:02:44.186Z,6.00
2023-03-29T02:05:15.582Z,6.53
2023-03-29T02:07:46.105Z,6.20
2023-03-29T02:10:16.462Z,5.68
2023-03-29T02:12:44.539Z,6.18
2023-03-29T02:15:16.069Z,5.78
2023-03-29T02:17:44.980Z,6.23
2023-03-29T02:20:17.568Z,5.97
2023-03-29T02:22:50.908Z,6.20
2023-03-29T02:25:20.049Z,6.18
2023-03-29T02:27:48.256Z,7.03
2023-03-29T02:30:20.737Z,7.32
2023-03-29T02:32:53.709Z,6.65
2023-03-29T02:35:27.030Z,6.07
2023-03-29T02:37:57.076Z,6.75
2023-03-29T02:40:25.979Z,6.47
2023-03-29T02:42:56.656Z,6.40
2023-03-29T02:45:27.726Z,6.75
2023-03-29T02:47:58.138Z,6.38
2023-03-29T02:50:29.710Z,6.15
2023-03-29T02:53:01.801Z,7.00
2023-03-29T02:55:34.532Z,6.50
2023-03-29T02:58:08.000Z,6.70
2023-03-29T03:00:39.515Z,6.57
2023-03-29T03:03:09.722Z,6.30
2023-03-29T03:05:38.310Z,7.28
2023-03-29T03:08:07.450Z,6.45
2023-03-29T03:10:35.940Z,7.05
2023-03-29T03:13:04.548Z,7.18
2023-03-29T03:15:35.524Z,7.13
2023-03-29T03:18:05.771Z,7.10
2023-03-29T03:20:33.926Z,7.55
2023-03-29T03:23:03.381Z,7.00
2023-03-29T03:25:32.444Z,6.55
2023-03-29T03:28:01.107Z,7.45
2023-03-29T03:30:30.071Z,6.85
2023-03-29T03:32:58.227Z,6.90
2023-03-29T03:35:27.925Z,6.88
2023-03-29T03:37:55.916Z,7.05
2023-03-29T03:40:24.713Z,6.97
2023-03-29T03:42:54.007Z,6.75
2023-03-29T03:45:22.006Z,7.05
2023-03-29T03:47:51.822Z,7.50
2023-03-29T03:50:20.458Z,7.15
2023-03-29T03:52:49.872Z,6.53
2023-03-29T03:55:17.886Z,7.05
2023-03-29T03:57:46.105Z,6.85
2023-03-29T04:00:21.074Z,6.75
2023-03-29T04:02:49.803Z,6.93
2023-03-29T04:05:18.433Z,7.22
2023-03-29T04:07:46.542Z,6.70
2023-03-29T04:10:15.998Z,6.68
2023-03-29T04:12:44.134Z,7.38
2023-03-29T04:15:12.465Z,6.85
2023-03-29T04:17:40.657Z,7.10
2023-03-29T04:20:12.678Z,7.03
2023-03-29T04:22:41.879Z,7.18
2023-03-29T04:25:11.771Z,7.63
2023-03-29T04:27:41.689Z,7.28
2023-03-29T04:30:11.271Z,7.47
2023-03-29T04:32:39.889Z,7.20
2023-03-29T04:35:08.239Z,7.38
2023-03-29T04:37:37.085Z,7.65
2023-03-29T04:40:09.142Z,7.22
2023-03-29T04:42:37.587Z,7.65
2023-03-29T04:45:08.773Z,7.97
2023-03-29T04:47:39.730Z,7.35
2023-03-29T04:50:09.120Z,7.38
2023-03-29T04:52:37.077Z,7.82
2023-03-29T04:55:07.084Z,8.00
2023-03-29T04:57:35.618Z,8.27
2023-03-29T05:00:08.445Z,8.27
2023-03-29T05:02:38.005Z,8.02
2023-03-29T05:05:06.419Z,7.65
2023-03-29T05:07:35.600Z,8.07
2023-03-29T05:10:04.034Z,8.15
2023-03-29T05:12:32.243Z,9.02
2023-03-29T05:15:00.561Z,8.52
2023-03-29T05:17:28.639Z,8.13
2023-03-29T05:19:58.026Z,8.98
2023-03-29T05:22:26.160Z,8.65
2023-03-29T05:24:54.141Z,8.75
2023-03-29T05:27:22.802Z,9.57
2023-03-29T05:29:51.072Z,9.20
2023-03-29T05:32:19.712Z,10.15
2023-03-29T05:34:47.836Z,9.30
2023-03-29T05:37:17.669Z,9.75
2023-03-29T05:39:45.843Z,9.73
2023-03-29T05:42:15.543Z,10.65
2023-03-29T05:44:43.907Z,10.55
2023-03-29T05:47:12.037Z,10.98
2023-03-29T05:49:40.160Z,9.77
2023-03-29T05:52:08.169Z,9.68
2023-03-29T05:54:37.767Z,10.27
2023-03-29T05:57:06.185Z,10.30
2023-03-29T05:59:34.961Z,10.45
2023-03-29T06:02:04.465Z,10.73
2023-03-29T06:04:33.765Z,10.10
2023-03-29T06:07:04.052Z,10.52
2023-03-29T06:09:33.051Z,10.23
2023-03-29T06:12:02.772Z,9.57
2023-03-29T06:14:30.919Z,10.30
2023-03-29T06:16:59.136Z,11.02
2023-03-29T06:19:29.856Z,10.90
2023-03-29T06:21:58.055Z,11.75
2023-03-29T06:24:26.100Z,10.95
2023-03-29T06:26:54.244Z,10.15
2023-03-29T06:29:24.292Z,10.55
2023-03-29T06:31:52.294Z,10.80
2023-03-29T06:34:21.740Z,11.15
2023-03-29T06:36:50.917Z,10.13
2023-03-29T06:39:19.181Z,11.13
2023-03-29T06:41:47.409Z,11.68
2023-03-29T06:44:17.440Z,12.45
2023-03-29T06:46:46.981Z,11.90
2023-03-29T06:49:15.050Z,12.18
2023-03-29T06:51:43.094Z,10.55
2023-03-29T06:54:11.675Z,11.85
2023-03-29T06:56:40.199Z,11.32
2023-03-29T06:59:08.473Z,10.30
2023-03-29T07:01:37.373Z,12.63
2023-03-29T07:04:09.456Z,11.57
2023-03-29T07:06:39.086Z,12.55
2023-03-29T07:09:07.792Z,11.68
2023-03-29T07:11:36.339Z,11.52
2023-03-29T07:14:04.324Z,12.77
2023-03-29T07:16:32.759Z,12.50
2023-03-29T07:19:01.482Z,13.13
2023-03-29T07:21:31.302Z,12.30
2023-03-29T07:23:59.436Z,13.00
2023-03-29T07:26:30.190Z,13.13
2023-03-29T07:28:58.807Z,13.45
2023-03-29T07:31:29.362Z,13.80
2023-03-29T07:33:57.619Z,13.55
2023-03-29T07:36:28.485Z,13.95
2023-03-29T07:39:01.809Z,14.13
2023-03-29T07:41:29.785Z,14.75
2023-03-29T07:43:58.962Z,13.88
2023-03-29T07:46:27.251Z,13.77
2023-03-29T07:48:56.689Z,13.50
2023-03-29T07:51:24.680Z,14.30
2023-03-29T07:53:53.308Z,14.73
2023-03-29T07:56:24.742Z,13.63
2023-03-29T07:58:52.811Z,14.48
2023-03-29T08:01:21.774Z,14.45
2023-03-29T08:03:49.884Z,15.73
2023-03-29T08:06:17.914Z,15.93
2023-03-29T08:08:46.459Z,15.75
2023-03-29T08:11:15.219Z,16.15
2023-03-29T08:13:44.633Z,16.63
2023-03-29T08:16:12.706Z,16.45
2023-03-29T08:18:40.886Z,16.20
2023-03-29T08:21:09.313Z,17.02
2023-03-29T08:23:37.358Z,17.20
2023-03-29T08:26:05.631Z,16.60
2023-03-29T08:28:33.904Z,17.45
2023-03-29T08:31:03.826Z,17.92
2023-03-29T08:33:32.409Z,16.88
2023-03-29T08:36:00.400Z,16.88
2023-03-29T08:38:28.761Z,17.75
2023-03-29T08:40:57.268Z,16.92
2023-03-29T08:43:44.751Z,18.17
2023-03-29T08:46:34.595Z,16.85
2023-03-29T08:49:05.119Z,16.08
2023-03-29T08:51:37.319Z,15.57
2023-03-29T08:54:09.266Z,14.82
2023-03-29T08:56:40.815Z,13.95
2023-03-29T08:59:20.040Z,13.75
2023-03-29T09:01:53.224Z,13.02
2023-03-29T09:04:27.168Z,12.57
2023-03-29T09:06:55.742Z,13.20
2023-03-29T09:09:27.092Z,13.68
2023-03-29T09:12:11.506Z,14.20
2023-03-29T09:14:56.471Z,12.90
2023-03-29T09:17:37.238Z,14.02
2023-03-29T09:20:17.458Z,12.75
2023-03-29T09:22:51.664Z,12.93
2023-03-29T09:25:25.306Z,12.35
2023-03-29T09:28:02.485Z,12.13
2023-03-29T09:30:36.410Z,12.05
2023-03-29T09:33:10.779Z,11.85
2023-03-29T09:35:43.161Z,12.45
2023-03-29T09:40:46.383Z,11.55
2023-03-29T09:43:18.460Z,12.02
2023-03-29T09:45:54.939Z,12.40
2023-03-29T09:48:26.240Z,11.35
2023-03-29T09:50:54.796Z,10.23
2023-03-29T09:53:23.469Z,10.93
2023-03-29T09:55:52.634Z,10.63
2023-03-29T09:58:26.205Z,11.52
2023-03-29T10:00:55.610Z,11.07
2023-03-29T10:03:27.365Z,10.25
2023-03-29T10:05:58.687Z,10.20
2023-03-29T10:08:29.371Z,10.88
2023-03-29T10:10:59.994Z,10.07
2023-03-29T10:13:31.204Z,10.93
2023-03-29T10:16:04.107Z,11.57
2023-03-29T10:18:34.686Z,12.05
2023-03-29T10:21:05.908Z,13.20
2023-03-29T10:23:35.658Z,13.27
2023-03-29T10:26:05.648Z,12.93
2023-03-29T10:28:36.354Z,14.20
2023-03-29T10:31:08.106Z,14.32
2023-03-29T10:33:37.931Z,14.70
2023-03-29T10:36:08.742Z,15.70
2023-03-29T10:38:38.662Z,15.73
2023-03-29T10:41:10.288Z,16.20
2023-03-29T10:43:40.426Z,17.40
2023-03-29T10:46:13.175Z,18.77
2023-03-29T10:48:47.490Z,19.40
2023-03-29T10:51:16.246Z,20.65
2023-03-29T10:53:44.305Z,19.55
2023-03-29T10:56:43.365Z,19.63
2023-03-29T10:59:23.017Z,19.10
2023-03-29T11:02:11.379Z,17.63
2023-03-29T11:04:46.924Z,16.08
2023-03-29T11:07:30.577Z,14.95
2023-03-29T11:10:13.523Z,17.90
2023-03-29T11:12:49.059Z,17.65
2023-03-29T11:15:39.666Z,17.98
2023-03-29T11:18:25.790Z,19.63
2023-03-29T11:21:08.507Z,18.20
2023-03-29T11:23:48.106Z,16.50
2023-03-29T11:26:20.552Z,15.60
2023-03-29T11:28:56.548Z,14.73
2023-03-29T11:31:35.868Z,13.60
2023-03-29T11:34:20.146Z,14.20
2023-03-29T11:36:55.602Z,14.23
2023-03-29T11:39:31.416Z,13.23
2023-03-29T11:42:09.220Z,12.70
2023-03-29T11:44:38.689Z,12.77
2023-03-29T11:47:13.916Z,13.07
2023-03-29T11:49:45.475Z,12.88
2023-03-29T11:52:19.284Z,12.10
2023-03-29T11:54:53.469Z,12.02
2023-03-29T11:57:27.406Z,12.05
2023-03-29T12:00:01.793Z,11.63
2023-03-29T12:02:35.602Z,11.75
2023-03-29T12:05:10.834Z,11.23
2023-03-29T12:07:46.692Z,10.98
2023-03-29T12:10:20.387Z,10.40
2023-03-29T12:12:53.988Z,11.10
2023-03-29T12:15:24.877Z,10.77
2023-03-29T12:18:02.322Z,11.43
2023-03-29T12:20:33.510Z,11.82
2023-03-29T12:23:03.445Z,11.23
2023-03-29T12:25:43.800Z,12.45
2023-03-29T12:28:24.167Z,12.70
2023-03-29T12:31:06.519Z,12.43
2023-03-29T12:33:58.750Z,13.05
2023-03-29T12:36:54.911Z,13.23
2023-03-29T12:39:28.211Z,12.70
2023-03-29T12:42:07.135Z,13.20
2023-03-29T12:44:35.252Z,13.20
2023-03-29T12:47:03.594Z,12.65
2023-03-29T12:49:36.063Z,11.23
2023-03-29T12:52:09.362Z,9.32
2023-03-29T12:54:38.785Z,8.55
2023-03-29T12:57:22.500Z,7.30
2023-03-29T12:59:52.354Z,7.15
2023-03-29T13:02:38.061Z,6.63
2023-03-29T13:05:21.580Z,6.90
2023-03-29T13:07:49.502Z,6.28
2023-03-29T13:10:40.618Z,6.30
2023-03-29T13:13:21.887Z,6.53
2023-03-29T13:15:49.912Z,6.20
2023-03-29T13:18:33.878Z,5.93
2023-03-29T13:21:10.844Z,6.40
2023-03-29T13:23:49.763Z,6.07
2023-03-29T13:26:41.278Z,6.40
2023-03-29T13:29:47.554Z,7.32
2023-03-29T13:32:39.600Z,7.22
2023-03-29T13:35:20.298Z,7.28
2023-03-29T13:37:58.944Z,7.97
2023-03-29T13:40:48.743Z,8.55
2023-03-29T13:43:35.332Z,8.05
2023-03-29T13:46:20.082Z,9.60
2023-03-29T13:49:00.694Z,9.80
2023-03-29T13:51:45.307Z,9.93
2023-03-29T13:54:27.811Z,10.23
2023-03-29T13:57:03.210Z,9.40
2023-03-29T13:59:44.133Z,9.80
2023-03-29T14:02:21.149Z,9.32
2023-03-29T14:04:52.288Z,9.70
2023-03-29T14:07:26.183Z,9.48
2023-03-29T14:09:56.409Z,8.95
2023-03-29T14:12:24.863Z,9.80
2023-03-29T14:14:59.418Z,9.00
2023-03-29T14:17:28.155Z,9.02
2023-03-29T14:19:59.293Z,10.20
2023-03-29T14:22:32.198Z,9.98
2023-03-29T14:25:04.757Z,9.65
2023-03-29T14:27:33.560Z,10.07
2023-03-29T14:30:03.049Z,8.95
2023-03-29T14:32:32.647Z,9.48
2023-03-29T14:35:01.885Z,9.52
2023-03-29T14:37:31.564Z,8.10
2023-03-29T14:40:00.575Z,7.88
2023-03-29T14:42:30.075Z,7.57
2023-03-29T14:45:09.283Z,7.85
2023-03-29T14:47:40.278Z,8.13
2023-03-29T14:50:19.292Z,7.38
2023-03-29T14:52:52.171Z,8.18
2023-03-29T14:55:23.844Z,7.70
2023-03-29T14:57:54.553Z,7.43
2023-03-29T15:00:30.678Z,7.93
2023-03-29T15:03:01.268Z,7.72
2023-03-29T15:05:37.512Z,8.35
2023-03-29T15:08:07.464Z,8.48
2023-03-29T15:10:37.653Z,7.70
2023-03-29T15:13:07.992Z,7.90
2023-03-29T15:15:39.661Z,7.20
2023-03-29T15:18:11.169Z,6.80
2023-03-29T15:20:41.408Z,7.18
2023-03-29T15:23:22.924Z,6.43
2023-03-29T15:25:55.904Z,6.83
2023-03-29T15:28:28.319Z,6.80
2023-03-29T15:33:36.708Z,7.30
2023-03-29T15:36:06.708Z,7.10
2023-03-29T15:38:43.172Z,6.22
2023-03-29T15:41:14.054Z,6.72
2023-03-29T15:43:42.820Z,6.35
2023-03-29T15:46:14.451Z,6.50
2023-03-29T15:48:42.557Z,6.30
2023-03-29T15:51:11.515Z,6.40
2023-03-29T15:53:39.801Z,6.22
2023-03-29T15:56:10.202Z,5.60
2023-03-29T15:58:39.169Z,5.28
2023-03-29T16:01:16.160Z,5.35
2023-03-29T16:03:47.809Z,5.20
2023-03-29T16:06:17.413Z,5.20
2023-03-29T16:08:46.016Z,4.90
2023-03-29T16:11:14.077Z,4.85
2023-03-29T16:13:42.122Z,5.07
2023-03-29T16:16:11.579Z,4.70
2023-03-29T16:18:39.653Z,4.53
2023-03-29T16:21:12.812Z,4.30
2023-03-29T16:23:41.761Z,4.30
2023-03-29T16:26:12.269Z,4.63
2023-03-29T16:28:41.054Z,4.72
2023-03-29T16:31:12.017Z,4.30
2023-03-29T16:33:40.195Z,4.30
2023-03-29T16:36:11.682Z,4.50
2023-03-29T16:38:39.799Z,5.20
2023-03-29T16:41:08.666Z,4.80
2023-03-29T16:43:38.571Z,5.03
2023-03-29T16:46:08.814Z,5.05
2023-03-29T16:48:37.230Z,6.32
2023-03-29T16:51:05.791Z,5.38
2023-03-29T16:53:35.816Z,5.20
2023-03-29T16:56:04.293Z,5.47
2023-03-29T16:58:32.514Z,5.28
2023-03-29T17:01:09.725Z,5.10
2023-03-29T17:03:38.228Z,5.85
2023-03-29T17:06:07.827Z,5.70
2023-03-29T17:08:37.640Z,5.50
2023-03-29T17:11:06.824Z,6.40
2023-03-29T17:13:35.150Z,6.28
2023-03-29T17:16:03.651Z,5.70
2023-03-29T17:18:31.930Z,7.30
2023-03-29T17:21:01.620Z,7.18
2023-03-29T17:23:29.759Z,6.45
2023-03-29T17:25:59.440Z,6.53
2023-03-29T17:28:27.527Z,6.35
2023-03-29T17:30:55.814Z,6.75
2023-03-29T17:33:26.078Z,6.57
2023-03-29T17:35:54.466Z,6.47
2023-03-29T17:38:22.726Z,6.60
2023-03-29T17:40:54.080Z,6.60
2023-03-29T17:43:23.777Z,6.90
2023-03-29T17:45:52.745Z,6.80
2023-03-29T17:48:21.254Z,6.40
2023-03-29T17:50:49.280Z,6.38
2023-03-29T17:53:17.254Z,6.07
2023-03-29T17:55:45.390Z,7.38
2023-03-29T17:58:13.720Z,7.70
2023-03-29T18:00:43.818Z,7.88
2023-03-29T18:03:12.101Z,8.45
2023-03-29T18:05:40.513Z,7.90
2023-03-29T18:08:09.482Z,7.72
2023-03-29T18:10:38.186Z,8.70
2023-03-29T18:13:06.748Z,9.10
2023-03-29T18:15:34.965Z,8.60
2023-03-29T18:18:04.998Z,9.40
2023-03-29T18:20:33.253Z,9.23
2023-03-29T18:23:01.365Z,9.27
2023-03-29T18:25:29.637Z,9.38
2023-03-29T18:27:57.823Z,11.68
2023-03-29T18:30:26.361Z,10.10
2023-03-29T18:32:54.458Z,10.43
2023-03-29T18:35:23.880Z,9.88
2023-03-29T18:37:52.233Z,10.55
2023-03-29T18:40:24.640Z,11.05
2023-03-29T18:42:53.111Z,10.45
2023-03-29T18:45:21.467Z,10.60
2023-03-29T18:47:50.547Z,11.05
2023-03-29T18:50:18.897Z,10.05
2023-03-29T18:52:48.719Z,11.68
2023-03-29T18:55:17.322Z,10.95
2023-03-29T18:57:45.560Z,12.07
2023-03-29T19:00:14.201Z,10.90
2023-03-29T19:02:43.150Z,11.23
2023-03-29T19:05:12.186Z,10.48
2023-03-29T19:07:40.421Z,10.10
2023-03-29T19:10:12.221Z,9.88
2023-03-29T19:12:40.551Z,9.75
2023-03-29T19:15:10.178Z,10.48
2023-03-29T19:17:38.453Z,10.55
2023-03-29T19:20:10.104Z,10.50
2023-03-29T19:22:38.499Z,10.15
2023-03-29T19:25:07.765Z,10.32
2023-03-29T19:27:37.496Z,10.60
2023-03-29T19:30:06.936Z,10.77
2023-03-29T19:32:34.973Z,11.27
2023-03-29T19:35:03.451Z,10.85
2023-03-29T19:37:31.711Z,10.65
2023-03-29T19:39:59.925Z,9.98
2023-03-29T19:42:28.136Z,9.18
2023-03-29T19:44:57.563Z,10.57
2023-03-29T19:47:26.326Z,10.73
2023-03-29T19:49:54.334Z,9.35
2023-03-29T19:52:23.974Z,11.88
2023-03-29T19:54:52.218Z,10.90
2023-03-29T19:57:20.213Z,10.60
2023-03-29T19:59:48.284Z,10.43
2023-03-29T20:02:18.125Z,9.80
2023-03-29T20:04:46.548Z,10.20
2023-03-29T20:07:14.887Z,9.13
2023-03-29T20:09:45.214Z,9.50
2023-03-29T20:12:13.818Z,8.73
2023-03-29T20:14:43.420Z,9.88
2023-03-29T20:17:11.534Z,9.73
2023-03-29T20:19:44.203Z,9.27
2023-03-29T20:22:12.709Z,9.95
2023-03-29T20:24:41.197Z,8.95
2023-03-29T20:27:09.720Z,8.90
2023-03-29T20:29:38.076Z,9.13
2023-03-29T20:32:06.771Z,9.55
2023-03-29T20:34:35.192Z,8.63
2023-03-29T20:37:04.646Z,9.52
2023-03-29T20:39:32.726Z,9.23
2023-03-29T20:42:00.679Z,8.93
2023-03-29T20:44:28.864Z,9.23
2023-03-29T20:47:03.765Z,10.13
2023-03-29T20:49:37.408Z,9.85
2023-03-29T20:52:10.948Z,9.75
2023-03-29T20:54:39.876Z,10.77
2023-03-29T20:57:08.465Z,9.77
2023-03-29T20:59:38.079Z,9.38
2023-03-29T21:02:06.715Z,9.23
2023-03-29T21:04:35.099Z,9.80
2023-03-29T21:07:05.255Z,9.68
2023-03-29T21:09:38.572Z,10.35
2023-03-29T21:12:07.379Z,9.18
2023-03-29T21:14:35.418Z,10.18
2023-03-29T21:17:03.435Z,9.57
2023-03-29T21:19:31.487Z,10.73
2023-03-29T21:21:59.493Z,10.15
2023-03-29T21:24:27.511Z,8.45
2023-03-29T21:26:56.852Z,8.27
2023-03-29T21:29:24.914Z,7.00
2023-03-29T21:31:53.042Z,6.43
2023-03-29T21:34:21.074Z,6.05
2023-03-29T21:36:49.069Z,6.32
2023-03-29T21:39:17.132Z,5.72
2023-03-29T21:41:45.147Z,6.95
2023-03-29T21:44:14.553Z,6.20
2023-03-29T21:46:42.552Z,5.30
2023-03-29T21:49:10.541Z,5.57
2023-03-29T21:51:38.599Z,5.57
2023-03-29T21:54:06.669Z,5.90
2023-03-29T21:56:34.636Z,5.60
2023-03-29T21:59:02.626Z,5.10
2023-03-29T22:01:32.179Z,5.47
2023-03-29T22:04:00.315Z,5.10
2023-03-29T22:06:28.341Z,5.10
2023-03-29T22:08:56.703Z,5.05
2023-03-29T22:11:25.716Z,5.03
2023-03-29T22:13:54.090Z,5.13
2023-03-29T22:16:25.579Z,5.35
2023-03-29T22:18:55.491Z,4.97
2023-03-29T22:21:25.498Z,4.65
2023-03-29T22:23:56.022Z,4.88
2023-03-29T22:26:27.538Z,5.18
2023-03-29T22:28:56.710Z,4.82
2023-03-29T22:31:26.278Z,5.55
2023-03-29T22:33:56.488Z,5.03
2023-03-29T22:36:25.936Z,5.03
2023-03-29T22:38:55.215Z,5.03
2023-03-29T22:41:26.149Z,5.00
2023-03-29T22:43:56.175Z,4.60
2023-03-29T22:46:24.948Z,4.90
2023-03-29T22:48:53.632Z,4.70
2023-03-29T22:51:23.533Z,4.82
2023-03-29T22:53:52.038Z,5.05
2023-03-29T22:56:20.493Z,4.63
2023-03-29T22:58:49.207Z,4.68
2023-03-29T23:01:17.553Z,4.93
2023-03-29T23:03:45.959Z,4.43
2023-03-29T23:06:14.220Z,4.88
2023-03-29T23:08:43.795Z,4.80
2023-03-29T23:11:12.946Z,5.25
2023-03-29T23:13:41.233Z,5.32
2023-03-29T23:16:09.713Z,5.90
2023-03-29T23:18:38.962Z,5.93
2023-03-29T23:21:07.592Z,4.78
2023-03-29T23:23:36.991Z,5.15
2023-03-29T23:26:08.429Z,5.20
2023-03-29T23:28:36.476Z,4.43
2023-03-29T23:31:07.164Z,4.78
2023-03-29T23:33:38.484Z,4.25
2023-03-29T23:36:09.525Z,4.15
2023-03-29T23:38:39.917Z,3.35
2023-03-29T23:41:13.020Z,3.40
2023-03-29T23:43:43.258Z,3.22
2023-03-29T23:46:13.397Z,3.10
2023-03-29T23:48:44.572Z,3.33
2023-03-29T23:51:13.011Z,2.90
2023-03-29T23:53:41.514Z,3.70
2023-03-29T23:56:11.010Z,2.97
2023-03-29T23:58:39.544Z,2.70
